sensor_id;sensor_type;location;lat;lon;timestamp;temperature;humidity
40964;DHT22;26693;51.168;4.138;2022-12-07T00:00:14;5.70;99.90
40964;DHT22;26693;51.168;4.138;2022-12-07T00:01:23;5.70;99.90
40964;DHT22;26693;51.168;4.138;2022-12-07T00:02:24;5.80;99.90
40964;DHT22;26693;51.168;4.138;2022-12-07T00:03:25;5.80;99.90
40964;DHT22;26693;51.168;4.138;2022-12-07T00:04:26;5.70;99.90
40964;DHT22;26693;51.168;4.138;2022-12-07T00:05:26;5.70;99.90
40964;DHT22;26693;51.168;4.138;2022-12-07T00:06:27;5.70;99.90
40964;DHT22;26693;51.168;4.138;2022-12-07T00:07:28;5.70;99.90
40964;DHT22;26693;51.168;4.138;2022-12-07T00:08:29;5.60;99.90
40964;DHT22;26693;51.168;4.138;2022-12-07T00:09:30;5.60;99.90
40964;DHT22;26693;51.168;4.138;2022-12-07T00:10:33;5.60;99.90
40964;DHT22;26693;51.168;4.138;2022-12-07T00:11:34;5.60;99.90
40964;DHT22;26693;51.168;4.138;2022-12-07T00:12:35;5.50;99.90
40964;DHT22;26693;51.168;4.138;2022-12-07T00:13:36;5.50;99.90
40964;DHT22;26693;51.168;4.138;2022-12-07T00:14:37;5.50;99.90
40964;DHT22;26693;51.168;4.138;2022-12-07T00:15:38;5.60;99.90
40964;DHT22;26693;51.168;4.138;2022-12-07T00:16:39;5.60;99.90
40964;DHT22;26693;51.168;4.138;2022-12-07T00:17:39;5.60;99.90
40964;DHT22;26693;51.168;4.138;2022-12-07T00:18:40;5.60;99.90
40964;DHT22;26693;51.168;4.138;2022-12-07T00:19:41;5.60;99.90
40964;DHT22;26693;51.168;4.138;2022-12-07T00:20:42;5.50;99.90
40964;DHT22;26693;51.168;4.138;2022-12-07T00:21:43;5.50;99.90
40964;DHT22;26693;51.168;4.138;2022-12-07T00:22:43;5.50;99.90
40964;DHT22;26693;51.168;4.138;2022-12-07T00:23:45;5.40;99.90
40964;DHT22;26693;51.168;4.138;2022-12-07T00:24:46;5.30;99.90
40964;DHT22;26693;51.168;4.138;2022-12-07T00:25:47;5.30;99.90
40964;DHT22;26693;51.168;4.138;2022-12-07T00:26:49;5.40;99.90
40964;DHT22;26693;51.168;4.138;2022-12-07T00:27:51;5.40;99.90
40964;DHT22;26693;51.168;4.138;2022-12-07T00:28:55;5.50;99.90
40964;DHT22;26693;51.168;4.138;2022-12-07T00:29:56;5.50;99.90
40964;DHT22;26693;51.168;4.138;2022-12-07T00:31:03;5.50;99.90
40964;DHT22;26693;51.168;4.138;2022-12-07T00:32:04;5.50;99.90
40964;DHT22;26693;51.168;4.138;2022-12-07T00:33:05;5.50;99.90
40964;DHT22;26693;51.168;4.138;2022-12-07T00:34:06;5.50;99.90
40964;DHT22;26693;51.168;4.138;2022-12-07T00:35:08;5.50;99.90
40964;DHT22;26693;51.168;4.138;2022-12-07T00:36:11;5.50;99.90
40964;DHT22;26693;51.168;4.138;2022-12-07T00:37:12;5.50;99.90
40964;DHT22;26693;51.168;4.138;2022-12-07T00:38:13;5.50;99.90
40964;DHT22;26693;51.168;4.138;2022-12-07T00:39:14;5.50;99.90
40964;DHT22;26693;51.168;4.138;2022-12-07T00:40:14;5.50;99.90
40964;DHT22;26693;51.168;4.138;2022-12-07T00:41:20;5.50;99.90
40964;DHT22;26693;51.168;4.138;2022-12-07T00:42:21;5.50;99.90
40964;DHT22;26693;51.168;4.138;2022-12-07T00:43:22;5.50;99.90
40964;DHT22;26693;51.168;4.138;2022-12-07T00:44:22;5.50;99.90
40964;DHT22;26693;51.168;4.138;2022-12-07T00:45:23;5.50;99.90
40964;DHT22;26693;51.168;4.138;2022-12-07T00:46:24;5.50;99.90
40964;DHT22;26693;51.168;4.138;2022-12-07T00:47:25;5.50;99.90
40964;DHT22;26693;51.168;4.138;2022-12-07T00:48:26;5.60;99.90
40964;DHT22;26693;51.168;4.138;2022-12-07T00:49:27;5.50;99.90
40964;DHT22;26693;51.168;4.138;2022-12-07T00:50:27;5.50;99.90
40964;DHT22;26693;51.168;4.138;2022-12-07T00:51:28;5.50;99.90
40964;DHT22;26693;51.168;4.138;2022-12-07T00:52:29;5.50;99.90
40964;DHT22;26693;51.168;4.138;2022-12-07T00:53:30;5.50;99.90
40964;DHT22;26693;51.168;4.138;2022-12-07T00:54:31;5.40;99.90
40964;DHT22;26693;51.168;4.138;2022-12-07T00:55:35;5.40;99.90
40964;DHT22;26693;51.168;4.138;2022-12-07T00:56:36;5.40;99.90
40964;DHT22;26693;51.168;4.138;2022-12-07T00:57:36;5.40;99.90
40964;DHT22;26693;51.168;4.138;2022-12-07T00:58:40;5.50;99.90
40964;DHT22;26693;51.168;4.138;2022-12-07T00:59:41;5.60;99.90
40964;DHT22;26693;51.168;4.138;2022-12-07T01:00:43;5.80;99.90
40964;DHT22;26693;51.168;4.138;2022-12-07T01:01:43;5.80;99.90
40964;DHT22;26693;51.168;4.138;2022-12-07T01:02:44;5.90;99.90
40964;DHT22;26693;51.168;4.138;2022-12-07T01:03:45;6.00;99.90
40964;DHT22;26693;51.168;4.138;2022-12-07T01:04:46;6.00;99.90
40964;DHT22;26693;51.168;4.138;2022-12-07T01:05:51;6.00;99.90
40964;DHT22;26693;51.168;4.138;2022-12-07T01:06:52;6.00;99.90
40964;DHT22;26693;51.168;4.138;2022-12-07T01:07:53;6.00;99.90
40964;DHT22;26693;51.168;4.138;2022-12-07T01:08:54;5.90;99.90
40964;DHT22;26693;51.168;4.138;2022-12-07T01:09:55;5.90;99.90
40964;DHT22;26693;51.168;4.138;2022-12-07T01:11:04;5.80;99.90
40964;DHT22;26693;51.168;4.138;2022-12-07T01:12:05;5.80;99.90
40964;DHT22;26693;51.168;4.138;2022-12-07T01:13:06;5.80;99.90
40964;DHT22;26693;51.168;4.138;2022-12-07T01:14:08;5.80;99.90
40964;DHT22;26693;51.168;4.138;2022-12-07T01:15:09;5.90;99.90
40964;DHT22;26693;51.168;4.138;2022-12-07T01:16:13;5.90;99.90
40964;DHT22;26693;51.168;4.138;2022-12-07T01:17:14;6.00;99.90
40964;DHT22;26693;51.168;4.138;2022-12-07T01:18:15;6.00;99.90
40964;DHT22;26693;51.168;4.138;2022-12-07T01:19:16;6.00;99.90
40964;DHT22;26693;51.168;4.138;2022-12-07T01:20:16;6.00;99.90
40964;DHT22;26693;51.168;4.138;2022-12-07T01:21:29;6.00;99.90
40964;DHT22;26693;51.168;4.138;2022-12-07T01:22:30;5.90;99.90
40964;DHT22;26693;51.168;4.138;2022-12-07T01:23:33;5.90;99.90
40964;DHT22;26693;51.168;4.138;2022-12-07T01:24:34;5.90;99.90
40964;DHT22;26693;51.168;4.138;2022-12-07T01:25:35;5.80;99.90
40964;DHT22;26693;51.168;4.138;2022-12-07T01:26:35;5.80;99.90
40964;DHT22;26693;51.168;4.138;2022-12-07T01:27:37;6.00;99.90
40964;DHT22;26693;51.168;4.138;2022-12-07T01:28:38;6.20;99.90
40964;DHT22;26693;51.168;4.138;2022-12-07T01:29:39;6.30;99.90
40964;DHT22;26693;51.168;4.138;2022-12-07T01:30:39;6.50;99.90
40964;DHT22;26693;51.168;4.138;2022-12-07T01:31:40;6.60;99.90
40964;DHT22;26693;51.168;4.138;2022-12-07T01:32:43;6.60;99.90
40964;DHT22;26693;51.168;4.138;2022-12-07T01:33:46;6.40;99.90
40964;DHT22;26693;51.168;4.138;2022-12-07T01:34:48;6.40;99.90
40964;DHT22;26693;51.168;4.138;2022-12-07T01:35:50;6.30;99.90
40964;DHT22;26693;51.168;4.138;2022-12-07T01:36:50;6.30;99.90
40964;DHT22;26693;51.168;4.138;2022-12-07T01:37:51;6.30;99.90
40964;DHT22;26693;51.168;4.138;2022-12-07T01:38:59;6.20;99.90
40964;DHT22;26693;51.168;4.138;2022-12-07T01:40:00;6.10;99.90
40964;DHT22;26693;51.168;4.138;2022-12-07T01:41:02;6.00;99.90
40964;DHT22;26693;51.168;4.138;2022-12-07T01:42:03;6.00;99.90
40964;DHT22;26693;51.168;4.138;2022-12-07T01:43:17;6.10;99.90
40964;DHT22;26693;51.168;4.138;2022-12-07T01:44:27;5.90;99.90
40964;DHT22;26693;51.168;4.138;2022-12-07T01:45:37;6.00;99.90
40964;DHT22;26693;51.168;4.138;2022-12-07T01:46:38;5.90;99.90
40964;DHT22;26693;51.168;4.138;2022-12-07T01:47:41;5.80;99.90
40964;DHT22;26693;51.168;4.138;2022-12-07T01:48:42;5.80;99.90
40964;DHT22;26693;51.168;4.138;2022-12-07T01:49:46;5.70;99.90
40964;DHT22;26693;51.168;4.138;2022-12-07T01:50:49;5.70;99.90
40964;DHT22;26693;51.168;4.138;2022-12-07T01:51:54;5.70;99.90
40964;DHT22;26693;51.168;4.138;2022-12-07T01:52:58;5.70;99.90
40964;DHT22;26693;51.168;4.138;2022-12-07T01:54:01;5.70;99.90
40964;DHT22;26693;51.168;4.138;2022-12-07T01:55:08;5.70;99.90
40964;DHT22;26693;51.168;4.138;2022-12-07T01:56:12;5.70;99.90
40964;DHT22;26693;51.168;4.138;2022-12-07T01:57:17;5.60;99.90
40964;DHT22;26693;51.168;4.138;2022-12-07T01:58:18;5.60;99.90
40964;DHT22;26693;51.168;4.138;2022-12-07T01:59:21;5.50;99.90
40964;DHT22;26693;51.168;4.138;2022-12-07T02:00:23;5.50;99.90
40964;DHT22;26693;51.168;4.138;2022-12-07T02:01:25;5.50;99.90
40964;DHT22;26693;51.168;4.138;2022-12-07T02:02:38;5.60;99.90
40964;DHT22;26693;51.168;4.138;2022-12-07T02:03:42;5.60;99.90
40964;DHT22;26693;51.168;4.138;2022-12-07T02:04:43;5.60;99.90
40964;DHT22;26693;51.168;4.138;2022-12-07T02:05:46;5.60;99.90
40964;DHT22;26693;51.168;4.138;2022-12-07T02:06:48;5.60;99.90
40964;DHT22;26693;51.168;4.138;2022-12-07T02:07:50;5.60;99.90
40964;DHT22;26693;51.168;4.138;2022-12-07T02:08:53;5.60;99.90
40964;DHT22;26693;51.168;4.138;2022-12-07T02:09:54;5.50;99.90
40964;DHT22;26693;51.168;4.138;2022-12-07T02:10:55;5.50;99.90
40964;DHT22;26693;51.168;4.138;2022-12-07T02:11:56;5.50;99.90
40964;DHT22;26693;51.168;4.138;2022-12-07T02:13:13;5.60;99.90
40964;DHT22;26693;51.168;4.138;2022-12-07T02:14:14;5.60;99.90
40964;DHT22;26693;51.168;4.138;2022-12-07T02:15:15;5.60;99.90
40964;DHT22;26693;51.168;4.138;2022-12-07T02:16:27;5.70;99.90
40964;DHT22;26693;51.168;4.138;2022-12-07T02:17:39;5.70;99.90
40964;DHT22;26693;51.168;4.138;2022-12-07T02:23:24;5.70;99.90
40964;DHT22;26693;51.168;4.138;2022-12-07T02:29:23;5.50;99.90
40964;DHT22;26693;51.168;4.138;2022-12-07T02:30:28;5.50;99.90
40964;DHT22;26693;51.168;4.138;2022-12-07T02:31:31;5.60;99.90
40964;DHT22;26693;51.168;4.138;2022-12-07T02:33:47;5.60;99.90
40964;DHT22;26693;51.168;4.138;2022-12-07T02:35:05;5.70;99.90
40964;DHT22;26693;51.168;4.138;2022-12-07T02:36:27;5.70;99.90
40964;DHT22;26693;51.168;4.138;2022-12-07T02:39:02;5.70;99.90
40964;DHT22;26693;51.168;4.138;2022-12-07T02:41:24;5.70;99.90
40964;DHT22;26693;51.168;4.138;2022-12-07T02:42:37;5.70;99.90
40964;DHT22;26693;51.168;4.138;2022-12-07T02:43:45;5.70;99.90
40964;DHT22;26693;51.168;4.138;2022-12-07T02:44:47;5.70;99.90
40964;DHT22;26693;51.168;4.138;2022-12-07T02:45:50;5.70;99.90
40964;DHT22;26693;51.168;4.138;2022-12-07T02:46:59;5.60;99.90
40964;DHT22;26693;51.168;4.138;2022-12-07T02:48:03;5.50;99.90
40964;DHT22;26693;51.168;4.138;2022-12-07T02:49:05;5.50;99.90
40964;DHT22;26693;51.168;4.138;2022-12-07T02:50:07;5.50;99.90
40964;DHT22;26693;51.168;4.138;2022-12-07T02:51:08;5.50;99.90
40964;DHT22;26693;51.168;4.138;2022-12-07T02:52:09;5.50;99.90
40964;DHT22;26693;51.168;4.138;2022-12-07T02:53:32;5.50;99.90
40964;DHT22;26693;51.168;4.138;2022-12-07T02:54:33;5.50;99.90
40964;DHT22;26693;51.168;4.138;2022-12-07T02:55:39;5.50;99.90
40964;DHT22;26693;51.168;4.138;2022-12-07T02:58:26;5.50;99.90
40964;DHT22;26693;51.168;4.138;2022-12-07T02:59:52;5.50;99.90
40964;DHT22;26693;51.168;4.138;2022-12-07T03:01:22;5.50;99.90
40964;DHT22;26693;51.168;4.138;2022-12-07T03:02:51;5.50;99.90
40964;DHT22;26693;51.168;4.138;2022-12-07T03:04:11;5.60;99.90
40964;DHT22;26693;51.168;4.138;2022-12-07T03:05:38;5.60;99.90
40964;DHT22;26693;51.168;4.138;2022-12-07T03:06:45;5.70;99.90
40964;DHT22;26693;51.168;4.138;2022-12-07T03:08:04;5.80;99.90
40964;DHT22;26693;51.168;4.138;2022-12-07T03:09:13;5.80;99.90
40964;DHT22;26693;51.168;4.138;2022-12-07T03:11:51;5.70;99.90
40964;DHT22;26693;51.168;4.138;2022-12-07T03:14:21;5.70;99.90
40964;DHT22;26693;51.168;4.138;2022-12-07T03:16:33;5.70;99.90
40964;DHT22;26693;51.168;4.138;2022-12-07T03:17:39;5.80;99.90
40964;DHT22;26693;51.168;4.138;2022-12-07T03:19:03;5.80;99.90
40964;DHT22;26693;51.168;4.138;2022-12-07T03:20:06;5.90;99.90
40964;DHT22;26693;51.168;4.138;2022-12-07T03:21:26;5.90;99.90
40964;DHT22;26693;51.168;4.138;2022-12-07T03:22:30;5.90;99.90
40964;DHT22;26693;51.168;4.138;2022-12-07T03:23:34;5.90;99.90
40964;DHT22;26693;51.168;4.138;2022-12-07T03:24:41;5.90;99.90
40964;DHT22;26693;51.168;4.138;2022-12-07T03:25:45;5.90;99.90
40964;DHT22;26693;51.168;4.138;2022-12-07T03:27:06;5.80;99.90
40964;DHT22;26693;51.168;4.138;2022-12-07T03:28:08;5.70;99.90
40964;DHT22;26693;51.168;4.138;2022-12-07T03:29:23;5.60;99.90
40964;DHT22;26693;51.168;4.138;2022-12-07T03:30:33;5.60;99.90
40964;DHT22;26693;51.168;4.138;2022-12-07T03:31:40;5.60;99.90
40964;DHT22;26693;51.168;4.138;2022-12-07T03:32:50;5.60;99.90
40964;DHT22;26693;51.168;4.138;2022-12-07T03:34:14;5.50;99.90
40964;DHT22;26693;51.168;4.138;2022-12-07T03:35:24;5.50;99.90
40964;DHT22;26693;51.168;4.138;2022-12-07T03:36:56;5.50;99.90
40964;DHT22;26693;51.168;4.138;2022-12-07T03:38:08;5.50;99.90
40964;DHT22;26693;51.168;4.138;2022-12-07T03:39:22;5.40;99.90
40964;DHT22;26693;51.168;4.138;2022-12-07T03:41:31;5.40;99.90
40964;DHT22;26693;51.168;4.138;2022-12-07T03:42:34;5.50;99.90
40964;DHT22;26693;51.168;4.138;2022-12-07T03:43:36;5.70;99.90
40964;DHT22;26693;51.168;4.138;2022-12-07T03:44:37;5.70;99.90
40964;DHT22;26693;51.168;4.138;2022-12-07T03:45:42;5.70;99.90
40964;DHT22;26693;51.168;4.138;2022-12-07T03:48:32;5.70;99.90
40964;DHT22;26693;51.168;4.138;2022-12-07T03:49:41;5.70;99.90
40964;DHT22;26693;51.168;4.138;2022-12-07T03:50:51;5.70;99.90
40964;DHT22;26693;51.168;4.138;2022-12-07T03:52:19;5.90;99.90
40964;DHT22;26693;51.168;4.138;2022-12-07T03:53:32;6.00;99.90
40964;DHT22;26693;51.168;4.138;2022-12-07T03:56:08;5.90;99.90
40964;DHT22;26693;51.168;4.138;2022-12-07T03:57:11;5.90;99.90
40964;DHT22;26693;51.168;4.138;2022-12-07T03:58:15;5.90;99.90
40964;DHT22;26693;51.168;4.138;2022-12-07T03:59:17;5.90;99.90
40964;DHT22;26693;51.168;4.138;2022-12-07T04:00:18;5.90;99.90
40964;DHT22;26693;51.168;4.138;2022-12-07T04:01:19;6.00;99.90
40964;DHT22;26693;51.168;4.138;2022-12-07T04:02:20;6.10;99.90
40964;DHT22;26693;51.168;4.138;2022-12-07T04:03:22;6.20;99.90
40964;DHT22;26693;51.168;4.138;2022-12-07T04:04:25;6.20;99.90
40964;DHT22;26693;51.168;4.138;2022-12-07T04:05:26;6.20;99.90
40964;DHT22;26693;51.168;4.138;2022-12-07T04:06:28;6.20;99.90
40964;DHT22;26693;51.168;4.138;2022-12-07T04:07:28;6.10;99.90
40964;DHT22;26693;51.168;4.138;2022-12-07T04:08:29;6.10;99.90
40964;DHT22;26693;51.168;4.138;2022-12-07T04:09:30;5.90;99.90
40964;DHT22;26693;51.168;4.138;2022-12-07T04:10:31;5.80;99.90
40964;DHT22;26693;51.168;4.138;2022-12-07T04:11:31;5.90;99.90
40964;DHT22;26693;51.168;4.138;2022-12-07T04:12:32;6.00;99.90
40964;DHT22;26693;51.168;4.138;2022-12-07T04:13:33;6.00;99.90
40964;DHT22;26693;51.168;4.138;2022-12-07T04:14:53;5.90;99.90
40964;DHT22;26693;51.168;4.138;2022-12-07T04:15:54;5.90;99.90
40964;DHT22;26693;51.168;4.138;2022-12-07T04:16:57;6.00;99.90
40964;DHT22;26693;51.168;4.138;2022-12-07T04:17:58;6.10;99.90
40964;DHT22;26693;51.168;4.138;2022-12-07T04:18:59;6.10;99.90
40964;DHT22;26693;51.168;4.138;2022-12-07T04:20:00;6.20;99.90
40964;DHT22;26693;51.168;4.138;2022-12-07T04:21:01;6.30;99.90
40964;DHT22;26693;51.168;4.138;2022-12-07T04:22:03;6.30;99.90
40964;DHT22;26693;51.168;4.138;2022-12-07T04:23:04;6.30;99.90
40964;DHT22;26693;51.168;4.138;2022-12-07T04:24:05;6.40;99.90
40964;DHT22;26693;51.168;4.138;2022-12-07T04:25:06;6.40;99.90
40964;DHT22;26693;51.168;4.138;2022-12-07T04:26:07;6.30;99.90
40964;DHT22;26693;51.168;4.138;2022-12-07T04:27:07;6.40;99.90
40964;DHT22;26693;51.168;4.138;2022-12-07T04:28:08;6.40;99.90
40964;DHT22;26693;51.168;4.138;2022-12-07T04:29:09;6.30;99.90
40964;DHT22;26693;51.168;4.138;2022-12-07T04:30:10;6.20;99.90
40964;DHT22;26693;51.168;4.138;2022-12-07T04:31:11;6.10;99.90
40964;DHT22;26693;51.168;4.138;2022-12-07T04:32:12;6.00;99.90
40964;DHT22;26693;51.168;4.138;2022-12-07T04:33:12;6.00;99.90
40964;DHT22;26693;51.168;4.138;2022-12-07T04:34:13;6.00;99.90
40964;DHT22;26693;51.168;4.138;2022-12-07T04:35:14;6.10;99.90
40964;DHT22;26693;51.168;4.138;2022-12-07T04:36:15;6.00;99.90
40964;DHT22;26693;51.168;4.138;2022-12-07T04:37:16;5.90;99.90
40964;DHT22;26693;51.168;4.138;2022-12-07T04:38:17;5.90;99.90
40964;DHT22;26693;51.168;4.138;2022-12-07T04:39:30;5.80;99.90
40964;DHT22;26693;51.168;4.138;2022-12-07T04:40:32;5.70;99.90
40964;DHT22;26693;51.168;4.138;2022-12-07T04:41:32;5.60;99.90
40964;DHT22;26693;51.168;4.138;2022-12-07T04:42:33;5.60;99.90
40964;DHT22;26693;51.168;4.138;2022-12-07T04:43:35;5.60;99.90
40964;DHT22;26693;51.168;4.138;2022-12-07T04:44:36;5.60;99.90
40964;DHT22;26693;51.168;4.138;2022-12-07T04:45:36;5.70;99.90
40964;DHT22;26693;51.168;4.138;2022-12-07T04:46:37;5.70;99.90
40964;DHT22;26693;51.168;4.138;2022-12-07T04:47:38;5.80;99.90
40964;DHT22;26693;51.168;4.138;2022-12-07T04:48:39;5.70;99.90
40964;DHT22;26693;51.168;4.138;2022-12-07T04:49:39;5.60;99.90
40964;DHT22;26693;51.168;4.138;2022-12-07T04:50:40;5.60;99.90
40964;DHT22;26693;51.168;4.138;2022-12-07T04:51:41;5.50;99.90
40964;DHT22;26693;51.168;4.138;2022-12-07T04:52:42;5.50;99.90
40964;DHT22;26693;51.168;4.138;2022-12-07T04:53:42;5.50;99.90
40964;DHT22;26693;51.168;4.138;2022-12-07T04:54:44;5.50;99.90
40964;DHT22;26693;51.168;4.138;2022-12-07T04:55:45;5.50;99.90
40964;DHT22;26693;51.168;4.138;2022-12-07T04:56:46;5.40;99.90
40964;DHT22;26693;51.168;4.138;2022-12-07T04:57:47;5.50;99.90
40964;DHT22;26693;51.168;4.138;2022-12-07T04:58:48;5.50;99.90
40964;DHT22;26693;51.168;4.138;2022-12-07T04:59:49;5.50;99.90
40964;DHT22;26693;51.168;4.138;2022-12-07T05:00:50;5.60;99.90
40964;DHT22;26693;51.168;4.138;2022-12-07T05:01:53;5.50;99.90
40964;DHT22;26693;51.168;4.138;2022-12-07T05:02:55;5.50;99.90
40964;DHT22;26693;51.168;4.138;2022-12-07T05:03:56;5.50;99.90
40964;DHT22;26693;51.168;4.138;2022-12-07T05:04:57;5.50;99.90
40964;DHT22;26693;51.168;4.138;2022-12-07T05:05:57;5.50;99.90
40964;DHT22;26693;51.168;4.138;2022-12-07T05:06:58;5.50;99.90
40964;DHT22;26693;51.168;4.138;2022-12-07T05:07:59;5.40;99.90
40964;DHT22;26693;51.168;4.138;2022-12-07T05:09:00;5.40;99.90
40964;DHT22;26693;51.168;4.138;2022-12-07T05:10:00;5.40;99.90
40964;DHT22;26693;51.168;4.138;2022-12-07T05:11:02;5.40;99.90
40964;DHT22;26693;51.168;4.138;2022-12-07T05:12:03;5.40;99.90
40964;DHT22;26693;51.168;4.138;2022-12-07T05:13:03;5.40;99.90
40964;DHT22;26693;51.168;4.138;2022-12-07T05:14:24;5.40;99.90
40964;DHT22;26693;51.168;4.138;2022-12-07T05:15:24;5.30;99.90
40964;DHT22;26693;51.168;4.138;2022-12-07T05:16:25;5.30;99.90
40964;DHT22;26693;51.168;4.138;2022-12-07T05:17:26;5.30;99.90
40964;DHT22;26693;51.168;4.138;2022-12-07T05:18:31;5.40;99.90
40964;DHT22;26693;51.168;4.138;2022-12-07T05:19:31;5.50;99.90
40964;DHT22;26693;51.168;4.138;2022-12-07T05:20:32;5.50;99.90
40964;DHT22;26693;51.168;4.138;2022-12-07T05:21:34;5.50;99.90
40964;DHT22;26693;51.168;4.138;2022-12-07T05:22:35;5.50;99.90
40964;DHT22;26693;51.168;4.138;2022-12-07T05:23:36;5.40;99.90
40964;DHT22;26693;51.168;4.138;2022-12-07T05:24:36;5.40;99.90
40964;DHT22;26693;51.168;4.138;2022-12-07T05:25:38;5.40;99.90
40964;DHT22;26693;51.168;4.138;2022-12-07T05:26:38;5.40;99.90
40964;DHT22;26693;51.168;4.138;2022-12-07T05:27:39;5.50;99.90
40964;DHT22;26693;51.168;4.138;2022-12-07T05:28:40;5.60;99.90
40964;DHT22;26693;51.168;4.138;2022-12-07T05:29:40;5.70;99.90
40964;DHT22;26693;51.168;4.138;2022-12-07T05:30:41;5.70;99.90
40964;DHT22;26693;51.168;4.138;2022-12-07T05:31:42;5.80;99.90
40964;DHT22;26693;51.168;4.138;2022-12-07T05:32:43;5.90;99.90
40964;DHT22;26693;51.168;4.138;2022-12-07T05:33:44;6.00;99.90
40964;DHT22;26693;51.168;4.138;2022-12-07T05:34:46;6.10;99.90
40964;DHT22;26693;51.168;4.138;2022-12-07T05:35:47;6.20;99.90
40964;DHT22;26693;51.168;4.138;2022-12-07T05:36:47;6.20;99.90
40964;DHT22;26693;51.168;4.138;2022-12-07T05:37:48;6.40;99.90
40964;DHT22;26693;51.168;4.138;2022-12-07T05:38:50;6.40;99.90
40964;DHT22;26693;51.168;4.138;2022-12-07T05:39:51;6.50;99.90
40964;DHT22;26693;51.168;4.138;2022-12-07T05:40:52;6.70;99.90
40964;DHT22;26693;51.168;4.138;2022-12-07T05:41:52;6.80;99.90
40964;DHT22;26693;51.168;4.138;2022-12-07T05:43:12;6.80;99.90
40964;DHT22;26693;51.168;4.138;2022-12-07T05:44:13;6.90;99.90
40964;DHT22;26693;51.168;4.138;2022-12-07T05:45:14;7.00;99.90
40964;DHT22;26693;51.168;4.138;2022-12-07T05:46:15;7.00;99.90
40964;DHT22;26693;51.168;4.138;2022-12-07T05:47:16;6.80;99.90
40964;DHT22;26693;51.168;4.138;2022-12-07T05:48:17;6.70;99.90
40964;DHT22;26693;51.168;4.138;2022-12-07T05:49:17;6.60;99.90
40964;DHT22;26693;51.168;4.138;2022-12-07T05:50:18;6.70;99.90
40964;DHT22;26693;51.168;4.138;2022-12-07T05:51:21;6.50;99.90
40964;DHT22;26693;51.168;4.138;2022-12-07T05:52:22;6.50;99.90
40964;DHT22;26693;51.168;4.138;2022-12-07T05:53:22;6.40;99.90
40964;DHT22;26693;51.168;4.138;2022-12-07T05:54:23;6.40;99.90
40964;DHT22;26693;51.168;4.138;2022-12-07T05:55:24;6.20;99.90
40964;DHT22;26693;51.168;4.138;2022-12-07T05:56:25;6.00;99.90
40964;DHT22;26693;51.168;4.138;2022-12-07T05:57:26;6.00;99.90
40964;DHT22;26693;51.168;4.138;2022-12-07T05:58:30;6.00;99.90
40964;DHT22;26693;51.168;4.138;2022-12-07T05:59:49;5.90;99.90
40964;DHT22;26693;51.168;4.138;2022-12-07T06:00:53;5.90;99.90
40964;DHT22;26693;51.168;4.138;2022-12-07T06:02:00;5.90;99.90
40964;DHT22;26693;51.168;4.138;2022-12-07T06:03:01;6.00;99.90
40964;DHT22;26693;51.168;4.138;2022-12-07T06:04:03;5.90;99.90
40964;DHT22;26693;51.168;4.138;2022-12-07T06:05:04;5.80;99.90
40964;DHT22;26693;51.168;4.138;2022-12-07T06:06:05;5.80;99.90
40964;DHT22;26693;51.168;4.138;2022-12-07T06:07:08;5.90;99.90
40964;DHT22;26693;51.168;4.138;2022-12-07T06:08:08;5.80;99.90
40964;DHT22;26693;51.168;4.138;2022-12-07T06:09:10;5.90;99.90
40964;DHT22;26693;51.168;4.138;2022-12-07T06:10:10;5.90;99.90
40964;DHT22;26693;51.168;4.138;2022-12-07T06:11:11;5.80;99.90
40964;DHT22;26693;51.168;4.138;2022-12-07T06:12:31;5.80;99.90
40964;DHT22;26693;51.168;4.138;2022-12-07T06:13:34;5.70;99.90
40964;DHT22;26693;51.168;4.138;2022-12-07T06:14:36;5.70;99.90
40964;DHT22;26693;51.168;4.138;2022-12-07T06:15:37;5.70;99.90
40964;DHT22;26693;51.168;4.138;2022-12-07T06:16:38;5.80;99.90
40964;DHT22;26693;51.168;4.138;2022-12-07T06:17:40;5.80;99.90
40964;DHT22;26693;51.168;4.138;2022-12-07T06:18:41;5.80;99.90
40964;DHT22;26693;51.168;4.138;2022-12-07T06:19:42;5.80;99.90
40964;DHT22;26693;51.168;4.138;2022-12-07T06:20:43;5.80;99.90
40964;DHT22;26693;51.168;4.138;2022-12-07T06:21:44;5.70;99.90
40964;DHT22;26693;51.168;4.138;2022-12-07T06:22:44;5.70;99.90
40964;DHT22;26693;51.168;4.138;2022-12-07T06:23:45;5.60;99.90
40964;DHT22;26693;51.168;4.138;2022-12-07T06:24:46;5.70;99.90
40964;DHT22;26693;51.168;4.138;2022-12-07T06:25:46;5.70;99.90
40964;DHT22;26693;51.168;4.138;2022-12-07T06:26:49;5.70;99.90
40964;DHT22;26693;51.168;4.138;2022-12-07T06:27:50;5.80;99.90
40964;DHT22;26693;51.168;4.138;2022-12-07T06:28:53;5.90;99.90
40964;DHT22;26693;51.168;4.138;2022-12-07T06:29:54;5.90;99.90
40964;DHT22;26693;51.168;4.138;2022-12-07T06:31:01;5.90;99.90
40964;DHT22;26693;51.168;4.138;2022-12-07T06:32:04;6.10;99.90
40964;DHT22;26693;51.168;4.138;2022-12-07T06:33:05;6.00;99.90
40964;DHT22;26693;51.168;4.138;2022-12-07T06:34:10;5.90;99.90
40964;DHT22;26693;51.168;4.138;2022-12-07T06:35:11;5.90;99.90
40964;DHT22;26693;51.168;4.138;2022-12-07T06:36:11;5.90;99.90
40964;DHT22;26693;51.168;4.138;2022-12-07T06:37:15;5.90;99.90
40964;DHT22;26693;51.168;4.138;2022-12-07T06:38:15;5.90;99.90
40964;DHT22;26693;51.168;4.138;2022-12-07T06:39:19;5.80;99.90
40964;DHT22;26693;51.168;4.138;2022-12-07T06:40:20;5.80;99.90
40964;DHT22;26693;51.168;4.138;2022-12-07T06:41:21;5.90;99.90
40964;DHT22;26693;51.168;4.138;2022-12-07T06:42:23;5.80;99.90
40964;DHT22;26693;51.168;4.138;2022-12-07T06:43:24;5.70;99.90
40964;DHT22;26693;51.168;4.138;2022-12-07T06:44:25;5.80;99.90
40964;DHT22;26693;51.168;4.138;2022-12-07T06:45:27;5.80;99.90
40964;DHT22;26693;51.168;4.138;2022-12-07T06:46:27;5.80;99.90
40964;DHT22;26693;51.168;4.138;2022-12-07T06:47:28;5.70;99.90
40964;DHT22;26693;51.168;4.138;2022-12-07T06:48:30;5.80;99.90
40964;DHT22;26693;51.168;4.138;2022-12-07T06:49:30;5.80;99.90
40964;DHT22;26693;51.168;4.138;2022-12-07T06:50:31;5.80;99.90
40964;DHT22;26693;51.168;4.138;2022-12-07T06:51:32;5.70;99.90
40964;DHT22;26693;51.168;4.138;2022-12-07T06:52:34;5.70;99.90
40964;DHT22;26693;51.168;4.138;2022-12-07T06:53:38;5.70;99.90
40964;DHT22;26693;51.168;4.138;2022-12-07T06:54:38;5.80;99.90
40964;DHT22;26693;51.168;4.138;2022-12-07T06:55:39;5.90;99.90
40964;DHT22;26693;51.168;4.138;2022-12-07T06:56:42;5.90;99.90
40964;DHT22;26693;51.168;4.138;2022-12-07T06:57:43;6.00;99.90
40964;DHT22;26693;51.168;4.138;2022-12-07T06:58:44;6.00;99.90
40964;DHT22;26693;51.168;4.138;2022-12-07T06:59:44;6.00;99.90
40964;DHT22;26693;51.168;4.138;2022-12-07T07:00:48;5.90;99.90
40964;DHT22;26693;51.168;4.138;2022-12-07T07:01:51;5.90;99.90
40964;DHT22;26693;51.168;4.138;2022-12-07T07:02:52;5.90;99.90
40964;DHT22;26693;51.168;4.138;2022-12-07T07:03:54;5.90;99.90
40964;DHT22;26693;51.168;4.138;2022-12-07T07:04:55;5.90;99.90
40964;DHT22;26693;51.168;4.138;2022-12-07T07:05:57;6.00;99.90
40964;DHT22;26693;51.168;4.138;2022-12-07T07:06:58;5.90;99.90
40964;DHT22;26693;51.168;4.138;2022-12-07T07:07:59;5.80;99.90
40964;DHT22;26693;51.168;4.138;2022-12-07T07:09:00;5.90;99.90
40964;DHT22;26693;51.168;4.138;2022-12-07T07:10:02;6.00;99.90